Time;durP1;ratioP1;P1;durP2;ratioP2;P2;SDS_P1;SDS_P2;PMS_P1;PMS_P2;Temp;Humidity;BMP_temperature;BMP_pressure;BME280_temperature;BME280_humidity;BME280_pressure;Samples;Min_cycle;Max_cycle;Signal;HPM_P1;HPM_P2
2023/07/21 00:00:15;;;;;;;;;;;;;;;32.48;38.00;101108.78;5095741;28;19916;-49
2023/07/21 00:02:43;;;;;;;;;;;;;;;32.39;38.70;101110.78;5077349;28;19916;-48
2023/07/21 00:05:09;;;;;;;;;;;;;;;32.29;38.37;101106.44;5094845;28;19916;-50
2023/07/21 00:07:35;;;;;;;;;;;;;;;32.22;38.54;101095.13;5095062;28;19916;-50
2023/07/21 00:10:07;;;;;;;;;;;;;;;32.11;39.54;101100.25;5098373;28;19912;-53
2023/07/21 00:12:37;;;;;;;;;;;;;;;32.09;39.24;101097.84;5095025;28;19927;-48
2023/07/21 00:15:04;;;;;;;;;;;;;;;32.08;39.35;101104.50;5082991;28;19912;-52
2023/07/21 00:17:30;;;;;;;;;;;;;;;32.00;39.50;101097.88;5093616;28;19917;-52
2023/07/21 00:20:04;;;;;;;;;;;;;;;32.08;39.53;101095.38;5097345;28;19980;-51
2023/07/21 00:22:31;;;;;;;;;;;;;;;32.07;39.59;101102.88;5081388;28;19930;-51
2023/07/21 00:24:56;;;;;;;;;;;;;;;32.09;39.93;101102.53;5094469;28;19920;-51
2023/07/21 00:27:22;;;;;;;;;;;;;;;32.10;39.96;101104.16;5094282;28;19917;-49
2023/07/21 00:29:49;;;;;;;;;;;;;;;32.11;40.00;101108.53;5094914;28;19942;-48
2023/07/21 00:32:18;;;;;;;;;;;;;;;32.09;39.99;101097.84;5063492;28;19920;-51
2023/07/21 00:34:44;;;;;;;;;;;;;;;31.94;40.44;101095.66;5104273;28;19916;-50
2023/07/21 00:37:10;;;;;;;;;;;;;;;32.10;40.44;101093.91;5100472;28;19927;-53
2023/07/21 00:39:36;;;;;;;;;;;;;;;32.24;40.10;101092.81;5088617;28;19939;-53
2023/07/21 00:42:03;;;;;;;;;;;;;;;32.09;40.41;101095.06;5094353;28;19948;-50
2023/07/21 00:44:28;;;;;;;;;;;;;;;31.93;40.51;101089.28;5094638;28;19923;-50
2023/07/21 00:46:54;;;;;;;;;;;;;;;32.21;40.36;101093.50;5093823;28;19917;-52
2023/07/21 00:49:21;;;;;;;;;;;;;;;32.35;39.89;101088.53;5076898;28;19916;-51
2023/07/21 00:51:47;;;;;;;;;;;;;;;32.26;40.39;101090.53;5077375;28;19924;-53
2023/07/21 00:54:12;;;;;;;;;;;;;;;32.24;40.66;101090.06;5094409;28;19928;-49
2023/07/21 00:56:37;;;;;;;;;;;;;;;32.38;40.44;101082.31;5110103;28;19917;-50
2023/07/21 00:59:03;;;;;;;;;;;;;;;31.83;41.27;101078.66;5077018;28;19923;-50
2023/07/21 01:01:29;;;;;;;;;;;;;;;31.74;40.46;101084.19;5084124;28;19920;-50
2023/07/21 01:03:55;;;;;;;;;;;;;;;31.93;41.06;101072.72;5077617;28;19916;-51
2023/07/21 01:06:27;;;;;;;;;;;;;;;31.72;41.21;101072.66;5077362;28;19917;-53
2023/07/21 01:08:54;;;;;;;;;;;;;;;31.61;40.97;101077.78;5089087;28;19987;-51
2023/07/21 01:11:20;;;;;;;;;;;;;;;31.65;41.42;101072.41;5089300;28;19947;-54
2023/07/21 01:13:45;;;;;;;;;;;;;;;31.64;41.38;101076.31;5076839;28;19921;-51
2023/07/21 01:16:11;;;;;;;;;;;;;;;31.69;40.92;101071.38;5078557;28;19916;-49
2023/07/21 01:18:38;;;;;;;;;;;;;;;31.55;41.64;101068.84;5092458;28;19983;-49
2023/07/21 01:21:05;;;;;;;;;;;;;;;31.59;41.68;101069.00;5089719;28;19979;-49
2023/07/21 01:23:57;;;;;;;;;;;;;;;31.16;42.67;101068.06;5098572;28;19917;-49
2023/07/21 01:26:25;;;;;;;;;;;;;;;31.14;42.51;101070.31;5097725;28;19948;-48
2023/07/21 01:28:51;;;;;;;;;;;;;;;31.14;42.31;101070.31;5100182;28;19917;-53
2023/07/21 01:31:19;;;;;;;;;;;;;;;31.26;42.63;101062.19;5066194;28;19928;-51
2023/07/21 01:33:45;;;;;;;;;;;;;;;30.98;42.94;101059.81;5109867;28;19916;-53
2023/07/21 01:36:11;;;;;;;;;;;;;;;31.06;42.29;101063.69;5112454;28;19938;-51
2023/07/21 01:38:37;;;;;;;;;;;;;;;30.44;44.49;101051.97;5097238;28;19940;-50
2023/07/21 01:41:02;;;;;;;;;;;;;;;31.03;43.39;101054.13;5113985;28;19923;-48
2023/07/21 01:43:30;;;;;;;;;;;;;;;30.98;43.47;101057.06;5084264;28;19928;-48
2023/07/21 01:45:56;;;;;;;;;;;;;;;30.60;43.69;101044.81;5096845;28;19964;-53
2023/07/21 01:48:21;;;;;;;;;;;;;;;30.57;44.68;101041.88;5079754;28;19961;-47
2023/07/21 01:50:47;;;;;;;;;;;;;;;30.58;43.98;101037.97;5080169;28;19972;-49
2023/07/21 01:53:17;;;;;;;;;;;;;;;30.66;44.28;101037.16;5114147;28;20130;-48
2023/07/21 01:55:52;;;;;;;;;;;;;;;30.48;44.98;101033.59;5094445;28;19916;-48
2023/07/21 01:58:18;;;;;;;;;;;;;;;30.48;44.52;101039.94;5079902;28;19955;-51
2023/07/21 02:00:44;;;;;;;;;;;;;;;30.45;44.52;101032.34;5078895;28;19916;-50
2023/07/21 02:03:10;;;;;;;;;;;;;;;30.40;45.34;101034.44;5109273;28;19927;-52
2023/07/21 02:05:35;;;;;;;;;;;;;;;30.56;44.95;101037.50;5118935;28;19959;-49
2023/07/21 02:08:01;;;;;;;;;;;;;;;30.47;44.99;101038.34;5079586;28;19916;-53
2023/07/21 02:10:26;;;;;;;;;;;;;;;30.48;45.09;101037.19;5096607;28;19943;-50
2023/07/21 02:13:06;;;;;;;;;;;;;;;30.46;45.02;101033.13;5079879;28;20379;-51
2023/07/21 02:15:31;;;;;;;;;;;;;;;30.40;45.58;101024.19;5096216;28;19916;-47
2023/07/21 02:17:57;;;;;;;;;;;;;;;30.07;45.54;101029.41;5090920;28;19917;-53
2023/07/21 02:20:23;;;;;;;;;;;;;;;30.20;45.98;101022.94;5075861;28;19924;-50
2023/07/21 02:22:49;;;;;;;;;;;;;;;30.21;46.11;101023.72;5105172;28;19916;-52
2023/07/21 02:25:15;;;;;;;;;;;;;;;30.21;45.95;101024.56;5096700;28;19938;-50
2023/07/21 02:27:41;;;;;;;;;;;;;;;30.16;45.92;101019.22;5069419;28;19939;-52
2023/07/21 02:30:07;;;;;;;;;;;;;;;30.14;46.36;101027.78;5112104;28;19972;-49
2023/07/21 02:32:33;;;;;;;;;;;;;;;30.08;46.10;101020.00;5089823;28;19920;-51
2023/07/21 02:34:59;;;;;;;;;;;;;;;29.98;46.38;101021.94;5093448;28;19979;-51
2023/07/21 02:37:27;;;;;;;;;;;;;;;30.03;46.89;101018.25;5096767;28;19920;-49
2023/07/21 02:39:52;;;;;;;;;;;;;;;30.08;46.80;101015.31;5083525;28;19985;-50
2023/07/21 02:42:17;;;;;;;;;;;;;;;30.18;46.30;101005.91;5112654;28;19920;-47
2023/07/21 02:44:44;;;;;;;;;;;;;;;30.18;46.02;101009.47;5099178;28;19917;-48
2023/07/21 02:47:12;;;;;;;;;;;;;;;30.19;46.84;101005.56;5075530;28;19920;-49
2023/07/21 02:49:37;;;;;;;;;;;;;;;30.03;46.99;101009.97;5086008;28;19939;-49
2023/07/21 02:52:04;;;;;;;;;;;;;;;30.24;46.41;101012.06;5102124;28;19920;-53
2023/07/21 02:54:31;;;;;;;;;;;;;;;30.12;46.13;101002.50;5093347;28;19981;-53
2023/07/21 02:56:58;;;;;;;;;;;;;;;30.12;46.19;101005.25;5099170;28;20683;-47
2023/07/21 02:59:25;;;;;;;;;;;;;;;29.93;46.06;101007.50;5077165;28;19917;-47
2023/07/21 03:01:54;;;;;;;;;;;;;;;29.94;45.74;101003.59;5110260;28;19952;-47
2023/07/21 03:04:28;;;;;;;;;;;;;;;29.97;45.85;101008.47;5111052;28;19920;-46
2023/07/21 03:06:59;;;;;;;;;;;;;;;29.96;46.09;101002.16;5097849;28;19916;-51
2023/07/21 03:09:24;;;;;;;;;;;;;;;29.82;46.36;101007.00;5091162;28;19974;-51
2023/07/21 03:11:50;;;;;;;;;;;;;;;29.76;45.90;101000.84;5076350;28;19946;-47
2023/07/21 03:14:28;;;;;;;;;;;;;;;29.89;45.96;101001.84;5078205;28;19959;-49
2023/07/21 03:16:54;;;;;;;;;;;;;;;29.52;46.76;100996.56;5107551;28;19916;-50
2023/07/21 03:19:20;;;;;;;;;;;;;;;29.58;46.87;100992.56;5111758;28;19920;-54
2023/07/21 03:21:46;;;;;;;;;;;;;;;29.56;47.10;100994.81;5111793;28;19948;-51
2023/07/21 03:24:12;;;;;;;;;;;;;;;29.55;46.49;101000.66;5100313;28;19923;-49
2023/07/21 03:26:38;;;;;;;;;;;;;;;29.64;46.53;100995.94;5120118;28;19920;-51
2023/07/21 03:29:04;;;;;;;;;;;;;;;29.47;47.13;100993.97;5078097;28;19912;-49
2023/07/21 03:31:30;;;;;;;;;;;;;;;29.56;46.35;100992.06;5095587;28;19932;-51
2023/07/21 03:33:59;;;;;;;;;;;;;;;29.52;46.91;100990.28;5111687;28;19916;-51
2023/07/21 03:36:27;;;;;;;;;;;;;;;29.59;46.25;100994.19;5082481;28;20480;-55
2023/07/21 03:38:53;;;;;;;;;;;;;;;30.74;43.38;101006.00;5078167;28;19917;-53
2023/07/21 03:41:19;;;;;;;;;;;;;;;31.44;41.47;101004.09;5077907;28;19923;-50
2023/07/21 03:43:44;;;;;;;;;;;;;;;31.08;42.46;100995.16;5085543;28;19924;-53
2023/07/21 03:46:12;;;;;;;;;;;;;;;30.02;44.17;100997.31;5113099;28;19916;-49
2023/07/21 03:49:00;;;;;;;;;;;;;;;30.09;45.32;100994.88;5086516;28;19963;-48
2023/07/21 03:51:27;;;;;;;;;;;;;;;29.96;44.99;100995.81;5077775;28;19942;-48
2023/07/21 03:53:53;;;;;;;;;;;;;;;29.64;46.56;100984.94;5082561;28;19917;-48
2023/07/21 03:56:22;;;;;;;;;;;;;;;29.70;46.51;100983.66;5114650;28;19938;-49
2023/07/21 03:58:49;;;;;;;;;;;;;;;29.57;47.16;100984.59;5077945;28;19920;-47
2023/07/21 04:01:15;;;;;;;;;;;;;;;29.27;48.39;100985.16;5094751;28;19943;-48
2023/07/21 04:03:40;;;;;;;;;;;;;;;29.37;48.60;100986.00;5111346;28;19924;-51
2023/07/21 04:06:10;;;;;;;;;;;;;;;29.71;47.95;100990.78;5077475;28;19947;-50
2023/07/21 04:08:36;;;;;;;;;;;;;;;29.24;49.30;100982.25;5095336;28;19927;-50
2023/07/21 04:11:01;;;;;;;;;;;;;;;28.81;51.07;100975.44;5098526;28;19920;-53
2023/07/21 04:13:27;;;;;;;;;;;;;;;29.29;49.34;100982.88;5095024;28;19948;-47
2023/07/21 04:15:52;;;;;;;;;;;;;;;29.52;48.58;100982.00;5082904;28;19920;-47
2023/07/21 04:18:18;;;;;;;;;;;;;;;29.57;48.14;100985.44;5100435;28;19916;-49
2023/07/21 04:20:43;;;;;;;;;;;;;;;29.44;48.60;100976.16;5094888;28;19916;-53
2023/07/21 04:23:09;;;;;;;;;;;;;;;29.21;49.69;100978.19;5060927;28;19947;-50
2023/07/21 04:25:35;;;;;;;;;;;;;;;28.83;50.31;100970.41;5110998;28;19974;-49
2023/07/21 04:28:05;;;;;;;;;;;;;;;28.86;51.18;100970.59;5110913;28;20456;-52
2023/07/21 04:30:34;;;;;;;;;;;;;;;28.81;51.57;100969.91;5094713;28;19975;-47
2023/07/21 04:33:01;;;;;;;;;;;;;;;28.52;52.42;100971.22;5116003;28;19920;-53
2023/07/21 04:35:26;;;;;;;;;;;;;;;29.48;49.66;100973.56;5077054;28;20214;-48
2023/07/21 04:37:52;;;;;;;;;;;;;;;29.73;49.31;100976.66;5077107;28;19920;-50
2023/07/21 04:40:20;;;;;;;;;;;;;;;28.93;51.55;100967.41;5100161;28;19920;-47
2023/07/21 04:42:47;;;;;;;;;;;;;;;28.81;52.45;100970.75;5110554;28;19924;-50
2023/07/21 04:45:14;;;;;;;;;;;;;;;28.71;52.88;100970.97;5076769;28;20011;-48
2023/07/21 04:47:49;;;;;;;;;;;;;;;28.70;53.22;100966.59;5120689;28;19916;-49
2023/07/21 04:50:20;;;;;;;;;;;;;;;28.57;53.79;100960.88;5110330;28;19973;-54
2023/07/21 04:52:46;;;;;;;;;;;;;;;28.97;52.44;100962.88;5116851;28;19943;-50
2023/07/21 04:55:13;;;;;;;;;;;;;;;29.15;51.21;100969.25;5105639;28;19917;-48
2023/07/21 04:57:39;;;;;;;;;;;;;;;29.10;51.22;100971.34;5094145;28;19923;-52
2023/07/21 05:00:11;;;;;;;;;;;;;;;29.09;51.08;100975.25;5110668;28;19924;-48
2023/07/21 05:02:36;;;;;;;;;;;;;;;29.17;50.83;100974.44;5078593;28;19916;-48
2023/07/21 05:05:02;;;;;;;;;;;;;;;29.16;51.06;100975.56;5086591;28;19923;-50
2023/07/21 05:07:29;;;;;;;;;;;;;;;29.08;50.09;100979.13;5110071;28;19920;-48
2023/07/21 05:09:58;;;;;;;;;;;;;;;29.45;49.42;100977.78;5094271;28;19983;-52
2023/07/21 05:12:25;;;;;;;;;;;;;;;29.58;49.14;100981.53;5111871;28;19920;-48
2023/07/21 05:15:02;;;;;;;;;;;;;;;30.04;47.30;100981.25;5087145;28;19916;-50
2023/07/21 05:17:37;;;;;;;;;;;;;;;30.17;47.13;100985.78;5081264;28;19937;-51
2023/07/21 05:20:29;;;;;;;;;;;;;;;29.98;47.23;100985.28;5094930;28;19920;-47
2023/07/21 05:23:16;;;;;;;;;;;;;;;29.78;47.42;100987.56;5097438;28;19917;-56
2023/07/21 05:25:44;;;;;;;;;;;;;;;29.77;47.35;100983.97;5098069;28;19922;-51
2023/07/21 05:28:10;;;;;;;;;;;;;;;30.01;46.05;100984.66;5125039;28;19920;-53
2023/07/21 05:30:42;;;;;;;;;;;;;;;30.12;45.37;100985.16;5067992;28;19916;-47
2023/07/21 05:33:10;;;;;;;;;;;;;;;30.10;45.18;100987.41;5113673;28;19924;-49
2023/07/21 05:35:37;;;;;;;;;;;;;;;30.14;44.40;100989.19;5080359;28;19917;-48
2023/07/21 05:38:13;;;;;;;;;;;;;;;30.40;44.76;100988.34;5118055;28;19917;-51
2023/07/21 05:40:42;;;;;;;;;;;;;;;30.39;43.93;100981.19;5114262;28;19916;-53
2023/07/21 05:43:08;;;;;;;;;;;;;;;30.58;44.53;100983.63;5080064;28;19923;-47
2023/07/21 05:45:38;;;;;;;;;;;;;;;30.63;44.80;100984.59;5087151;28;19927;-49
2023/07/21 05:48:04;;;;;;;;;;;;;;;30.64;43.61;100989.78;5077054;28;19917;-49
2023/07/21 05:50:39;;;;;;;;;;;;;;;30.79;42.99;100984.88;5080016;28;19916;-51
2023/07/21 05:53:06;;;;;;;;;;;;;;;30.79;42.09;100991.19;5080028;28;19928;-48
2023/07/21 05:55:32;;;;;;;;;;;;;;;30.92;41.86;100997.66;5102267;28;19916;-51
2023/07/21 05:57:58;;;;;;;;;;;;;;;31.19;42.43;100993.63;5113159;28;19930;-51
2023/07/21 06:00:25;;;;;;;;;;;;;;;31.15;41.81;100989.09;5113215;28;19924;-55
2023/07/21 06:02:56;;;;;;;;;;;;;;;31.15;41.62;100981.63;5113245;28;19917;-53
2023/07/21 06:05:21;;;;;;;;;;;;;;;31.35;41.28;100984.78;5081199;28;19917;-50
2023/07/21 06:07:59;;;;;;;;;;;;;;;31.61;40.87;100979.09;5087133;28;19979;-53
2023/07/21 06:10:31;;;;;;;;;;;;;;;31.42;40.42;100987.03;5113138;28;19944;-54
2023/07/21 06:13:04;;;;;;;;;;;;;;;31.77;39.57;100975.75;5104743;28;19928;-53
2023/07/21 06:15:39;;;;;;;;;;;;;;;31.95;39.78;100978.38;5098179;28;19928;-53
2023/07/21 06:18:15;;;;;;;;;;;;;;;31.90;39.38;100971.91;5103860;28;20382;-54
2023/07/21 06:20:41;;;;;;;;;;;;;;;32.15;38.23;100976.72;5114353;28;19917;-52
2023/07/21 06:23:06;;;;;;;;;;;;;;;32.08;38.71;100980.06;5096021;28;19916;-53
2023/07/21 06:25:33;;;;;;;;;;;;;;;32.43;37.84;100979.72;5079030;28;19923;-54
2023/07/21 06:28:04;;;;;;;;;;;;;;;32.65;37.67;100983.22;5117653;28;19916;-52
2023/07/21 06:30:30;;;;;;;;;;;;;;;32.83;36.89;100981.03;5079766;28;19920;-53
2023/07/21 06:32:55;;;;;;;;;;;;;;;32.78;37.10;100984.03;5096876;28;19925;-55
2023/07/21 06:35:46;;;;;;;;;;;;;;;32.64;36.02;100978.00;5094673;28;19942;-53
2023/07/21 06:38:29;;;;;;;;;;;;;;;32.98;36.29;100978.78;5096546;28;19928;-55
2023/07/21 06:41:05;;;;;;;;;;;;;;;32.90;36.15;100980.50;5079444;28;19920;-55
2023/07/21 06:43:44;;;;;;;;;;;;;;;33.11;36.09;100971.28;5067390;28;19916;-53
2023/07/21 06:46:28;;;;;;;;;;;;;;;33.41;35.66;100971.81;5094138;28;19929;-54
2023/07/21 06:49:00;;;;;;;;;;;;;;;33.03;36.61;100973.81;5107380;28;20039;-53
2023/07/21 06:51:32;;;;;;;;;;;;;;;33.59;36.24;100966.84;5097174;28;19927;-51
2023/07/21 06:53:58;;;;;;;;;;;;;;;33.28;36.85;100973.81;5077384;28;19912;-54
2023/07/21 06:56:23;;;;;;;;;;;;;;;33.76;35.91;100978.81;5080263;28;19916;-53
2023/07/21 06:58:49;;;;;;;;;;;;;;;33.39;35.77;100968.59;5078814;28;19920;-53
2023/07/21 07:01:16;;;;;;;;;;;;;;;33.25;35.84;100968.13;5095939;28;19916;-50
2023/07/21 07:03:41;;;;;;;;;;;;;;;33.61;35.95;100972.84;5096317;28;19917;-50
2023/07/21 07:06:07;;;;;;;;;;;;;;;33.26;35.92;100965.03;5091225;28;19916;-52
2023/07/21 07:08:33;;;;;;;;;;;;;;;33.31;36.08;100962.03;5078637;28;19920;-54
2023/07/21 07:10:59;;;;;;;;;;;;;;;33.83;35.46;100973.47;5096115;28;19925;-48
2023/07/21 07:13:25;;;;;;;;;;;;;;;33.60;35.34;100962.91;5095930;28;19955;-53
2023/07/21 07:15:50;;;;;;;;;;;;;;;33.29;36.07;100969.88;5084892;28;19916;-51
2023/07/21 07:18:16;;;;;;;;;;;;;;;33.16;35.90;100969.09;5097717;28;19937;-48
2023/07/21 07:20:49;;;;;;;;;;;;;;;32.61;37.06;100971.22;5096131;28;19916;-47
2023/07/21 07:23:16;;;;;;;;;;;;;;;33.27;36.18;100974.13;5095789;28;19916;-50
2023/07/21 07:25:45;;;;;;;;;;;;;;;33.01;36.84;100976.13;5080348;28;19956;-51
2023/07/21 07:28:11;;;;;;;;;;;;;;;32.82;37.32;100973.09;5078111;28;19916;-48
2023/07/21 07:30:36;;;;;;;;;;;;;;;32.38;37.26;100965.28;5095685;28;19963;-51
2023/07/21 07:33:02;;;;;;;;;;;;;;;33.11;37.42;100968.50;5094639;28;19996;-51
2023/07/21 07:35:28;;;;;;;;;;;;;;;33.08;37.76;100967.22;5095111;28;19920;-50
2023/07/21 07:37:53;;;;;;;;;;;;;;;33.19;37.57;100964.78;5095589;28;19917;-51
2023/07/21 07:40:19;;;;;;;;;;;;;;;34.00;36.30;100972.38;5095566;28;19920;-52
2023/07/21 07:42:46;;;;;;;;;;;;;;;33.09;37.76;100968.03;5095402;28;19916;-51
2023/07/21 07:45:11;;;;;;;;;;;;;;;33.01;36.44;100973.38;5095014;28;19916;-52
2023/07/21 07:47:38;;;;;;;;;;;;;;;32.78;37.10;100981.28;5095217;28;19916;-52
2023/07/21 07:50:03;;;;;;;;;;;;;;;33.10;36.35;100978.78;5094957;28;19938;-50
2023/07/21 07:52:29;;;;;;;;;;;;;;;33.51;35.94;100970.56;5095058;28;19931;-49
2023/07/21 07:54:55;;;;;;;;;;;;;;;32.91;36.27;100975.78;5095027;28;19927;-47
2023/07/21 07:57:24;;;;;;;;;;;;;;;33.75;36.06;100977.19;5088239;28;19921;-52
2023/07/21 07:59:50;;;;;;;;;;;;;;;33.74;36.29;100973.59;5092436;28;19928;-50
2023/07/21 08:02:16;;;;;;;;;;;;;;;34.04;36.07;100978.03;5087877;28;19946;-53
2023/07/21 08:04:41;;;;;;;;;;;;;;;34.20;35.72;100975.28;5095617;28;19920;-54
2023/07/21 08:07:07;;;;;;;;;;;;;;;33.22;37.18;100974.38;5096253;28;19916;-53
2023/07/21 08:09:32;;;;;;;;;;;;;;;33.33;36.92;100979.09;5095209;28;19917;-51
2023/07/21 08:11:58;;;;;;;;;;;;;;;34.30;35.56;100982.28;5099085;28;20483;-50
2023/07/21 08:14:23;;;;;;;;;;;;;;;34.77;34.78;100974.38;5094880;28;19917;-49
2023/07/21 08:16:49;;;;;;;;;;;;;;;33.87;36.25;100979.91;5098880;28;19916;-50
2023/07/21 08:19:14;;;;;;;;;;;;;;;34.89;35.54;100988.19;5099263;28;19993;-48
2023/07/21 08:21:40;;;;;;;;;;;;;;;34.17;35.21;100985.16;5101292;28;19920;-51
2023/07/21 08:24:05;;;;;;;;;;;;;;;34.98;34.37;100982.44;5094738;28;20303;-50
2023/07/21 08:26:31;;;;;;;;;;;;;;;34.80;33.68;100985.59;5094597;28;19924;-48
2023/07/21 08:28:56;;;;;;;;;;;;;;;33.96;35.24;100979.00;5095683;28;19924;-52
2023/07/21 08:31:22;;;;;;;;;;;;;;;34.47;33.15;100993.06;5101382;28;19925;-51
2023/07/21 08:33:47;;;;;;;;;;;;;;;34.45;34.07;100984.28;5094536;28;19969;-47
2023/07/21 08:36:13;;;;;;;;;;;;;;;34.92;33.20;100989.44;5094299;28;19917;-49
2023/07/21 08:38:38;;;;;;;;;;;;;;;35.72;32.95;100986.50;5094641;28;19927;-53
2023/07/21 08:41:06;;;;;;;;;;;;;;;35.66;32.44;100993.53;5099581;28;19917;-49
2023/07/21 08:43:31;;;;;;;;;;;;;;;34.65;33.67;100984.44;5093497;28;19923;-51
2023/07/21 08:46:01;;;;;;;;;;;;;;;35.18;33.03;100994.44;5100091;28;19920;-49
2023/07/21 08:48:27;;;;;;;;;;;;;;;34.98;33.98;100990.78;5093763;28;19920;-48
2023/07/21 08:50:56;;;;;;;;;;;;;;;35.16;32.89;100988.44;5095799;28;19992;-51
2023/07/21 08:53:24;;;;;;;;;;;;;;;35.03;33.38;100994.09;5094362;28;19935;-52
2023/07/21 08:55:54;;;;;;;;;;;;;;;33.82;35.07;100985.72;5094445;28;19928;-49
2023/07/21 08:58:21;;;;;;;;;;;;;;;35.13;33.53;100989.19;5092395;28;19924;-48
2023/07/21 09:00:47;;;;;;;;;;;;;;;34.68;33.41;100989.28;5089437;28;19923;-50
2023/07/21 09:03:19;;;;;;;;;;;;;;;34.60;33.62;100991.06;5094563;28;19923;-50
2023/07/21 09:05:46;;;;;;;;;;;;;;;35.35;33.01;100990.47;5096593;28;19920;-48
2023/07/21 09:08:22;;;;;;;;;;;;;;;35.48;32.90;100984.78;5087409;28;19924;-51
2023/07/21 09:10:48;;;;;;;;;;;;;;;35.10;33.24;100985.13;5093210;28;19912;-50
2023/07/21 09:13:14;;;;;;;;;;;;;;;34.67;33.63;100990.44;5094204;28;19927;-48
2023/07/21 09:15:39;;;;;;;;;;;;;;;33.67;34.74;100989.22;5093073;28;19917;-53
2023/07/21 09:18:04;;;;;;;;;;;;;;;34.92;33.92;100979.13;5083950;28;19927;-52
2023/07/21 09:20:31;;;;;;;;;;;;;;;35.09;33.19;100988.28;5096872;28;19921;-49
2023/07/21 09:22:56;;;;;;;;;;;;;;;36.03;32.74;100984.78;5094123;28;19923;-51
2023/07/21 09:25:22;;;;;;;;;;;;;;;36.68;31.03;100987.97;5093797;28;19916;-47
2023/07/21 09:27:55;;;;;;;;;;;;;;;35.70;33.12;100980.50;5103110;28;19923;-53
2023/07/21 09:30:20;;;;;;;;;;;;;;;35.68;33.17;100980.06;5095457;28;19920;-52
2023/07/21 09:32:46;;;;;;;;;;;;;;;36.02;32.26;100981.19;5093775;28;19935;-50
2023/07/21 09:35:12;;;;;;;;;;;;;;;34.77;32.43;100983.53;5093955;28;19917;-52
2023/07/21 09:37:38;;;;;;;;;;;;;;;35.08;32.44;100992.25;5098129;28;19916;-54
2023/07/21 09:40:05;;;;;;;;;;;;;;;35.41;31.81;100977.91;5097406;28;19920;-51
2023/07/21 09:42:31;;;;;;;;;;;;;;;35.06;31.50;100989.81;5100785;28;19924;-50
2023/07/21 09:44:57;;;;;;;;;;;;;;;35.49;30.95;100978.84;5076256;28;19921;-56
2023/07/21 09:47:23;;;;;;;;;;;;;;;35.71;31.31;100974.59;5092721;28;19939;-53
2023/07/21 09:49:49;;;;;;;;;;;;;;;36.01;30.54;100982.34;5093630;28;19927;-50
2023/07/21 09:52:16;;;;;;;;;;;;;;;36.98;29.56;100964.94;5091866;28;19971;-49
2023/07/21 09:54:44;;;;;;;;;;;;;;;37.24;29.18;100971.72;5092573;28;19952;-52
2023/07/21 09:57:11;;;;;;;;;;;;;;;39.06;28.10;100974.47;5093871;28;19979;-52
2023/07/21 09:59:38;;;;;;;;;;;;;;;40.34;26.08;100979.41;5085061;28;19979;-49
2023/07/21 10:02:05;;;;;;;;;;;;;;;40.33;24.62;100975.78;5103181;28;19917;-51
2023/07/21 10:04:31;;;;;;;;;;;;;;;40.10;24.67;100978.94;5103570;28;19943;-48
2023/07/21 10:06:58;;;;;;;;;;;;;;;40.00;24.42;100969.31;5097196;28;19916;-51
2023/07/21 10:09:26;;;;;;;;;;;;;;;40.91;23.91;100964.59;5084920;28;19916;-52
2023/07/21 10:11:52;;;;;;;;;;;;;;;41.49;24.15;100970.03;5097994;28;19927;-53
2023/07/21 10:14:47;;;;;;;;;;;;;;;41.30;24.32;100978.97;5113084;28;20000;-52
2023/07/21 10:17:23;;;;;;;;;;;;;;;42.74;23.33;100979.31;5087778;28;19938;-54
2023/07/21 10:20:05;;;;;;;;;;;;;;;42.46;22.62;100978.38;5097400;28;19947;-52
2023/07/21 10:22:31;;;;;;;;;;;;;;;41.84;23.52;100973.91;5084310;28;19916;-52
2023/07/21 10:24:57;;;;;;;;;;;;;;;41.70;23.37;100972.00;5096802;28;19917;-54
2023/07/21 10:27:23;;;;;;;;;;;;;;;40.27;23.73;100967.00;5093942;28;19920;-55
2023/07/21 10:29:52;;;;;;;;;;;;;;;39.81;25.06;100973.25;5096884;28;19938;-50
2023/07/21 10:32:21;;;;;;;;;;;;;;;41.43;23.76;100972.50;5106230;28;19960;-51
2023/07/21 10:34:47;;;;;;;;;;;;;;;42.77;23.08;100967.25;5097097;28;19920;-51
2023/07/21 10:37:13;;;;;;;;;;;;;;;41.80;23.28;100975.94;5110052;28;19947;-53
2023/07/21 10:39:42;;;;;;;;;;;;;;;41.99;23.12;100976.66;5097459;28;19927;-54
2023/07/21 10:42:09;;;;;;;;;;;;;;;41.70;23.49;100971.19;5096901;28;19939;-50
2023/07/21 10:44:37;;;;;;;;;;;;;;;41.65;23.81;100969.63;5096961;28;19917;-51
2023/07/21 10:47:03;;;;;;;;;;;;;;;42.11;23.04;100969.78;5096015;28;19916;-55
2023/07/21 10:49:28;;;;;;;;;;;;;;;41.16;23.71;100965.75;5093513;28;19934;-50
2023/07/21 10:51:54;;;;;;;;;;;;;;;41.80;22.89;100972.34;5088797;28;20715;-50
2023/07/21 10:54:20;;;;;;;;;;;;;;;42.11;21.99;100973.38;5071538;28;19927;-52
2023/07/21 10:56:48;;;;;;;;;;;;;;;41.11;23.39;100973.34;5096831;28;19916;-51
2023/07/21 10:59:15;;;;;;;;;;;;;;;42.25;21.63;100966.84;5096468;28;19917;-53
2023/07/21 11:01:41;;;;;;;;;;;;;;;42.68;21.60;100971.34;5096587;28;19956;-55
2023/07/21 11:04:08;;;;;;;;;;;;;;;41.52;22.72;100960.84;5095114;28;19917;-54
2023/07/21 11:06:38;;;;;;;;;;;;;;;40.21;24.16;100957.34;5080481;28;19939;-50
2023/07/21 11:09:03;;;;;;;;;;;;;;;40.91;22.36;100953.38;5084614;28;19975;-54
2023/07/21 11:11:29;;;;;;;;;;;;;;;40.26;22.49;100950.56;5087223;28;19927;-54
2023/07/21 11:13:55;;;;;;;;;;;;;;;41.44;22.57;100950.84;5103807;28;19916;-51
2023/07/21 11:16:20;;;;;;;;;;;;;;;41.50;22.51;100940.78;5102000;28;19920;-53
2023/07/21 11:18:46;;;;;;;;;;;;;;;43.23;21.30;100956.72;5094185;28;19924;-47
2023/07/21 11:21:11;;;;;;;;;;;;;;;43.54;20.15;100960.38;5102282;28;19916;-51
2023/07/21 11:23:37;;;;;;;;;;;;;;;43.26;21.07;100965.13;5109094;28;19970;-51
2023/07/21 11:26:11;;;;;;;;;;;;;;;41.26;22.94;100954.50;5095435;28;19927;-53
2023/07/21 11:28:39;;;;;;;;;;;;;;;41.55;24.34;100957.22;5077194;28;21316;-51
2023/07/21 11:31:12;;;;;;;;;;;;;;;42.40;23.56;100963.94;5095573;28;19927;-52
2023/07/21 11:33:47;;;;;;;;;;;;;;;41.03;24.09;100951.34;5085287;28;19923;-49
2023/07/21 11:36:12;;;;;;;;;;;;;;;40.94;23.25;100952.56;5095842;28;19919;-51
2023/07/21 11:38:38;;;;;;;;;;;;;;;39.65;24.52;100956.78;5095382;28;19913;-51
2023/07/21 11:41:07;;;;;;;;;;;;;;;41.80;22.89;100961.91;5095374;28;19955;-54
2023/07/21 11:43:45;;;;;;;;;;;;;;;42.51;22.57;100966.69;5095687;28;19921;-53
2023/07/21 11:46:19;;;;;;;;;;;;;;;42.08;21.90;100968.59;5093436;28;19921;-52
2023/07/21 11:48:47;;;;;;;;;;;;;;;43.45;22.03;100962.91;5095131;28;19924;-52
2023/07/21 11:51:13;;;;;;;;;;;;;;;44.73;20.89;100970.25;5095157;28;19916;-52
2023/07/21 11:53:45;;;;;;;;;;;;;;;44.56;20.49;100975.81;5095232;28;19916;-51
2023/07/21 11:56:11;;;;;;;;;;;;;;;43.49;21.54;100963.66;5077428;28;19943;-54
2023/07/21 11:58:36;;;;;;;;;;;;;;;42.53;21.42;100950.97;5100259;28;19916;-53
2023/07/21 12:01:06;;;;;;;;;;;;;;;43.61;20.63;100958.69;5087335;28;20022;-53
2023/07/21 12:03:33;;;;;;;;;;;;;;;41.19;22.77;100954.53;5095771;28;19924;-51
2023/07/21 12:05:59;;;;;;;;;;;;;;;40.26;23.15;100947.75;5095099;28;19924;-50
2023/07/21 12:08:26;;;;;;;;;;;;;;;40.48;23.69;100959.00;5095236;28;19916;-54
2023/07/21 12:10:52;;;;;;;;;;;;;;;38.78;24.90;100956.28;5095539;28;19927;-50
2023/07/21 12:13:17;;;;;;;;;;;;;;;38.26;26.36;100957.00;5097157;28;19920;-52
2023/07/21 12:15:43;;;;;;;;;;;;;;;39.40;25.47;100965.88;5095243;28;19916;-52
2023/07/21 12:18:08;;;;;;;;;;;;;;;39.53;26.28;100957.94;5100284;28;19923;-49
2023/07/21 12:20:34;;;;;;;;;;;;;;;38.78;27.15;100967.47;5096961;28;19951;-48
2023/07/21 12:22:59;;;;;;;;;;;;;;;38.42;27.47;100954.00;5095432;28;19920;-48
2023/07/21 12:25:25;;;;;;;;;;;;;;;37.73;28.62;100961.63;5094570;28;19916;-47
2023/07/21 12:27:50;;;;;;;;;;;;;;;38.08;28.45;100966.03;5095179;28;19916;-51
2023/07/21 12:30:16;;;;;;;;;;;;;;;37.87;28.56;100964.59;5094586;28;19973;-49
2023/07/21 12:32:41;;;;;;;;;;;;;;;37.94;28.23;100969.41;5094958;28;19958;-51
2023/07/21 12:35:07;;;;;;;;;;;;;;;37.53;29.21;100977.72;5094776;28;19916;-50
2023/07/21 12:37:33;;;;;;;;;;;;;;;38.06;29.99;100982.34;5094714;28;19916;-52